Date,TemperatureHighF,TemperatureAvgF,TemperatureLowF,DewpointHighF,DewpointAvgF,DewpointLowF,HumidityHigh,HumidityAvg,HumidityLow,PressureMaxIn,PressureMinIn,WindSpeedMaxMPH,WindSpeedAvgMPH,GustSpeedMaxMPH,PrecipitationSumIn
2013-7-1,74,67,62,57,46,40,62,47,38,0.00,40.00,33,16,44,0.00
2013-7-2,79,68,58,52,39,30,51,36,20,0.00,40.00,24,13,32,0.00
2013-7-3,68,62,57,42,25,7,58,27,13,0.00,40.00,27,21,33,0.00
2013-7-4,60,54,48,40,29,20,47,39,29,0.00,40.00,24,18,31,0.00
2013-7-5,53,52,51,40,40,40,66,65,62,0.00,40.00,2,1,8,0.00
2013-7-6,63,59,55,49,41,34,68,52,45,0.00,40.00,5,2,13,0.00
2013-7-7,62,60,50,41,35,23,47,40,28,0.00,40.00,20,8,24,0.00
2013-7-8,61,54,48,46,34,25,59,46,27,0.00,40.00,22,14,27,0.00
2013-7-9,68,62,52,38,35,29,54,37,29,0.00,40.00,14,8,22,0.00
2013-7-10,62,48,49,29,15,-100,44,33,24,0.00,40.00,31,25,37,0.00
2013-7-11,58,51,45,30,22,10,53,34,18,0.00,40.00,29,21,37,0.00
2013-7-12,54,45,40,26,22,16,54,41,28,0.00,40.00,22,20,30,0.00
2013-7-13,59,55,41,41,33,16,56,44,25,0.00,40.00,17,7,24,0.00
2013-7-14,65,60,48,37,30,24,50,33,25,0.00,40.00,12,8,20,0.00
2013-7-15,65,62,59,44,36,30,53,39,30,0.00,40.00,8,4,20,0.00
2013-7-16,62,59,55,40,32,23,50,37,23,0.00,40.00,22,11,31,0.00
2013-7-17,62,55,50,42,38,31,67,54,33,0.00,40.00,16,11,22,0.00
2013-7-18,68,65,59,43,29,17,41,26,15,0.00,40.00,17,9,23,0.00
2013-7-19,70,69,68,35,32,25,28,25,20,0.00,40.00,12,9,18,0.00
2013-7-20,71,69,67,28,23,18,20,18,15,0.00,40.00,16,13,22,0.00
2013-7-21,71,68,64,36,34,31,33,28,25,0.00,40.00,18,16,25,0.00
2013-7-25,73,71,70,32,27,17,22,20,13,0.00,40.00,16,14,22,0.00
2013-7-26,69,65,58,30,21,12,26,19,11,0.00,40.00,22,19,30,0.00
2013-7-27,64,60,54,31,25,12,31,26,17,0.00,40.00,17,14,24,0.00
2013-7-28,58,56,54,31,27,22,35,32,28,0.00,40.00,16,14,22,0.00
2013-7-29,62,62,62,33,31,30,33,31,30,0.00,40.00,10,9,18,0.00
2013-7-30,64,63,62,43,35,24,50,36,23,0.00,40.00,9,8,18,0.00
2013-7-31,65,59,54,42,35,29,57,41,29,0.00,40.00,8,4,23,0.00